THY3ES LIMC-LTFM
Flight info
| Callsign | THY3ES |
|---|---|
| Flight time | 2h 5m |
| Altitude | 41000 |
| Route | VAKON DCT OTKEK DCT LABIN DCT NISVA DCT DEDIN L614 GERGI T391 AYTEK |
| Aircraft | A359/H-SDE2E3GHIJ3J4J5LM1ORWXY/LB1D1 |
Departure
| Time | 2026-05-06 12:14 |
|---|---|
| Airport | Milan Malpensa International Airport (LIMC) |
Arrival
| Time | 2026-05-06 14:20 |
|---|---|
| Airport | İstanbul Airport (LTFM) |
| Time | Latitude | Longitude | Altitude | Speed | Heading |
|---|---|---|---|---|---|
| 2026-05-06 11:34 | 45.63150 | 8.71353 | 752 ft | 0 kts | 169° |
| 2026-05-06 12:00 | 45.63161 | 8.71350 | 747 ft | 3 kts | 171° |
| 2026-05-06 12:00 | 45.63182 | 8.71346 | 748 ft | 3 kts | 174° |
| 2026-05-06 12:00 | 45.63203 | 8.71343 | 748 ft | 3 kts | 171° |
| 2026-05-06 12:01 | 45.63222 | 8.71336 | 748 ft | 3 kts | 145° |
| 2026-05-06 12:01 | 45.63231 | 8.71322 | 748 ft | 2 kts | 84° |
| 2026-05-06 12:01 | 45.63229 | 8.71292 | 749 ft | 3 kts | 78° |
| 2026-05-06 12:01 | 45.63225 | 8.71268 | 748 ft | 0 kts | 80° |
| 2026-05-06 12:04 | 45.63225 | 8.71271 | 748 ft | 3 kts | 80° |
| 2026-05-06 12:04 | 45.63236 | 8.71364 | 751 ft | 15 kts | 79° |
| 2026-05-06 12:04 | 45.63263 | 8.71565 | 750 ft | 26 kts | 79° |
| 2026-05-06 12:04 | 45.63298 | 8.71818 | 750 ft | 9 kts | 79° |
| 2026-05-06 12:05 | 45.63299 | 8.71828 | 749 ft | 0 kts | 79° |
| 2026-05-06 12:05 | 45.63279 | 8.71859 | 748 ft | 10 kts | 153° |
| 2026-05-06 12:05 | 45.63191 | 8.71884 | 751 ft | 17 kts | 167° |
| 2026-05-06 12:05 | 45.63049 | 8.71923 | 748 ft | 24 kts | 169° |
| 2026-05-06 12:06 | 45.62876 | 8.71969 | 744 ft | 27 kts | 169° |
| 2026-05-06 12:06 | 45.62686 | 8.72022 | 739 ft | 29 kts | 169° |
| 2026-05-06 12:06 | 45.62482 | 8.72080 | 738 ft | 27 kts | 170° |
| 2026-05-06 12:06 | 45.62289 | 8.72132 | 734 ft | 29 kts | 169° |
| 2026-05-06 12:07 | 45.62080 | 8.72191 | 730 ft | 29 kts | 169° |
| 2026-05-06 12:07 | 45.61882 | 8.72246 | 730 ft | 31 kts | 169° |
| 2026-05-06 12:07 | 45.61670 | 8.72303 | 724 ft | 31 kts | 169° |
| 2026-05-06 12:07 | 45.61495 | 8.72350 | 722 ft | 10 kts | 169° |
| 2026-05-06 12:08 | 45.61412 | 8.72339 | 722 ft | 13 kts | 221° |
| 2026-05-06 12:08 | 45.61360 | 8.72209 | 721 ft | 18 kts | 218° |
| 2026-05-06 12:08 | 45.61243 | 8.72220 | 719 ft | 20 kts | 167° |
| 2026-05-06 12:08 | 45.61084 | 8.72266 | 717 ft | 27 kts | 168° |
| 2026-05-06 12:09 | 45.60885 | 8.72320 | 713 ft | 32 kts | 169° |
| 2026-05-06 12:09 | 45.60680 | 8.72392 | 715 ft | 26 kts | 147° |
| 2026-05-06 12:09 | 45.60630 | 8.72615 | 715 ft | 24 kts | 95° |
| 2026-05-06 12:09 | 45.60611 | 8.72856 | 710 ft | 25 kts | 97° |
| 2026-05-06 12:10 | 45.60593 | 8.73104 | 713 ft | 26 kts | 95° |
| 2026-05-06 12:10 | 45.60663 | 8.73293 | 715 ft | 22 kts | 19° |
| 2026-05-06 12:10 | 45.60808 | 8.73375 | 715 ft | 23 kts | 22° |
| 2026-05-06 12:10 | 45.60948 | 8.73394 | 712 ft | 18 kts | 351° |
| 2026-05-06 12:11 | 45.61080 | 8.73359 | 713 ft | 20 kts | 349° |
| 2026-05-06 12:11 | 45.61249 | 8.73314 | 717 ft | 28 kts | 349° |
| 2026-05-06 12:11 | 45.61448 | 8.73259 | 718 ft | 30 kts | 348° |
| 2026-05-06 12:11 | 45.61604 | 8.73227 | 721 ft | 0 kts | 23° |
| 2026-05-06 12:12 | 45.61615 | 8.73252 | 719 ft | 11 kts | 56° |
| 2026-05-06 12:12 | 45.61630 | 8.73402 | 717 ft | 20 kts | 95° |
| 2026-05-06 12:12 | 45.61587 | 8.73580 | 717 ft | 13 kts | 93° |
| 2026-05-06 12:12 | 45.61595 | 8.73693 | 713 ft | 9 kts | 81° |
| 2026-05-06 12:13 | 45.61620 | 8.73733 | 713 ft | 2 kts | 19° |
| 2026-05-06 12:13 | 45.61635 | 8.73731 | 716 ft | 4 kts | 354° |
| 2026-05-06 12:13 | 45.61749 | 8.73702 | 715 ft | 35 kts | 349° |
| 2026-05-06 12:13 | 45.62203 | 8.73578 | 726 ft | 103 kts | 350° |
| 2026-05-06 12:14 | 45.63131 | 8.73321 | 739 ft | 166 kts | 349° |
| 2026-05-06 12:14 | 45.64351 | 8.72981 | 1332 ft | 174 kts | 352° |
| 2026-05-06 12:14 | 45.65535 | 8.72713 | 2059 ft | 180 kts | 358° |
| 2026-05-06 12:14 | 45.66861 | 8.72810 | 2373 ft | 203 kts | 8° |
| 2026-05-06 12:15 | 45.68384 | 8.72964 | 2739 ft | 234 kts | 2° |
| 2026-05-06 12:15 | 45.70064 | 8.72966 | 3382 ft | 248 kts | 359° |
| 2026-05-06 12:15 | 45.71774 | 8.73495 | 4043 ft | 254 kts | 31° |
| 2026-05-06 12:15 | 45.72873 | 8.75283 | 5196 ft | 237 kts | 73° |
| 2026-05-06 12:16 | 45.72945 | 8.77571 | 6021 ft | 235 kts | 105° |
| 2026-05-06 12:16 | 45.72342 | 8.79824 | 6510 ft | 252 kts | 122° |
| 2026-05-06 12:16 | 45.71451 | 8.82076 | 7092 ft | 269 kts | 122° |
| 2026-05-06 12:16 | 45.70546 | 8.84487 | 8061 ft | 273 kts | 120° |
| 2026-05-06 12:17 | 45.69686 | 8.86924 | 9092 ft | 284 kts | 120° |
| 2026-05-06 12:17 | 45.68845 | 8.89527 | 9967 ft | 292 kts | 117° |
| 2026-05-06 12:17 | 45.67959 | 8.92232 | 10555 ft | 311 kts | 119° |
| 2026-05-06 12:17 | 45.66980 | 8.95125 | 10982 ft | 334 kts | 119° |
| 2026-05-06 12:18 | 45.65940 | 8.98188 | 11715 ft | 350 kts | 120° |
| 2026-05-06 12:18 | 45.64883 | 9.01384 | 12483 ft | 361 kts | 116° |
| 2026-05-06 12:18 | 45.64100 | 9.04825 | 13422 ft | 367 kts | 109° |
| 2026-05-06 12:18 | 45.63465 | 9.08379 | 14295 ft | 372 kts | 108° |
| 2026-05-06 12:19 | 45.62836 | 9.12012 | 15175 ft | 380 kts | 108° |
| 2026-05-06 12:19 | 45.62183 | 9.15715 | 16031 ft | 388 kts | 108° |
| 2026-05-06 12:19 | 45.61522 | 9.19478 | 16855 ft | 393 kts | 109° |
| 2026-05-06 12:19 | 45.60846 | 9.23279 | 17689 ft | 396 kts | 109° |
| 2026-05-06 12:20 | 45.60160 | 9.27120 | 18442 ft | 402 kts | 109° |
| 2026-05-06 12:20 | 45.59463 | 9.31014 | 19077 ft | 408 kts | 109° |
| 2026-05-06 12:20 | 45.58992 | 9.33636 | 19523 ft | 412 kts | 110° |
| 2026-05-06 12:20 | 45.58272 | 9.37638 | 20331 ft | 421 kts | 110° |
| 2026-05-06 12:21 | 45.57535 | 9.41722 | 20915 ft | 429 kts | 110° |
| 2026-05-06 12:21 | 45.56787 | 9.45871 | 21602 ft | 434 kts | 110° |
| 2026-05-06 12:21 | 45.56030 | 9.50067 | 22323 ft | 439 kts | 111° |
| 2026-05-06 12:21 | 45.55286 | 9.54323 | 23028 ft | 445 kts | 109° |
| 2026-05-06 12:22 | 45.54589 | 9.58653 | 23724 ft | 451 kts | 109° |
| 2026-05-06 12:22 | 45.53888 | 9.63031 | 24321 ft | 455 kts | 110° |
| 2026-05-06 12:22 | 45.53174 | 9.67447 | 24902 ft | 459 kts | 110° |
| 2026-05-06 12:22 | 45.52447 | 9.71909 | 25327 ft | 463 kts | 110° |
| 2026-05-06 12:23 | 45.51709 | 9.76411 | 25918 ft | 467 kts | 110° |
| 2026-05-06 12:23 | 45.50963 | 9.80943 | 26461 ft | 472 kts | 110° |
| 2026-05-06 12:23 | 45.50209 | 9.85505 | 27045 ft | 476 kts | 110° |
| 2026-05-06 12:23 | 45.49443 | 9.90127 | 27593 ft | 480 kts | 111° |
| 2026-05-06 12:24 | 45.48670 | 9.94774 | 28152 ft | 484 kts | 111° |
| 2026-05-06 12:24 | 45.47887 | 9.99469 | 28716 ft | 489 kts | 111° |
| 2026-05-06 12:24 | 45.47098 | 10.04200 | 29256 ft | 493 kts | 111° |
| 2026-05-06 12:24 | 45.46299 | 10.08970 | 29773 ft | 497 kts | 111° |
| 2026-05-06 12:25 | 45.45489 | 10.13771 | 30206 ft | 501 kts | 111° |
| 2026-05-06 12:25 | 45.44669 | 10.18622 | 30606 ft | 505 kts | 111° |
| 2026-05-06 12:25 | 45.43842 | 10.23497 | 31042 ft | 508 kts | 111° |
| 2026-05-06 12:25 | 45.43011 | 10.28396 | 31479 ft | 510 kts | 111° |
| 2026-05-06 12:26 | 45.42173 | 10.33320 | 31926 ft | 513 kts | 111° |
| 2026-05-06 12:26 | 45.41331 | 10.38258 | 32324 ft | 515 kts | 111° |
| 2026-05-06 12:26 | 45.40494 | 10.43155 | 32723 ft | 517 kts | 111° |
| 2026-05-06 12:26 | 45.39638 | 10.48143 | 33124 ft | 520 kts | 111° |
| 2026-05-06 12:27 | 45.38776 | 10.53151 | 33569 ft | 520 kts | 111° |
| 2026-05-06 12:27 | 45.37920 | 10.58135 | 34073 ft | 518 kts | 111° |
| 2026-05-06 12:27 | 45.37061 | 10.63111 | 34511 ft | 517 kts | 111° |
| 2026-05-06 12:27 | 45.36216 | 10.68077 | 34944 ft | 517 kts | 110° |
| 2026-05-06 12:28 | 45.35452 | 10.73080 | 35343 ft | 517 kts | 108° |
| 2026-05-06 12:28 | 45.34741 | 10.78088 | 35738 ft | 517 kts | 107° |
| 2026-05-06 12:28 | 45.34043 | 10.83102 | 36107 ft | 517 kts | 107° |
| 2026-05-06 12:28 | 45.33341 | 10.88106 | 36472 ft | 516 kts | 107° |
| 2026-05-06 12:29 | 45.32628 | 10.93099 | 36865 ft | 514 kts | 107° |
| 2026-05-06 12:29 | 45.31907 | 10.98074 | 37275 ft | 512 kts | 107° |
| 2026-05-06 12:29 | 45.31180 | 11.03022 | 37641 ft | 512 kts | 107° |
| 2026-05-06 12:29 | 45.30447 | 11.07960 | 37983 ft | 511 kts | 107° |
| 2026-05-06 12:30 | 45.29710 | 11.12901 | 38341 ft | 510 kts | 107° |
| 2026-05-06 12:30 | 45.28973 | 11.17821 | 38654 ft | 510 kts | 107° |
| 2026-05-06 12:30 | 45.28234 | 11.22746 | 38897 ft | 510 kts | 107° |
| 2026-05-06 12:30 | 45.27493 | 11.27667 | 39127 ft | 510 kts | 107° |
| 2026-05-06 12:31 | 45.26748 | 11.32597 | 39346 ft | 510 kts | 107° |
| 2026-05-06 12:31 | 45.26012 | 11.37460 | 39541 ft | 510 kts | 107° |
| 2026-05-06 12:31 | 45.25265 | 11.42383 | 39765 ft | 510 kts | 107° |
| 2026-05-06 12:31 | 45.24516 | 11.47307 | 39989 ft | 510 kts | 107° |
| 2026-05-06 12:32 | 45.23765 | 11.52225 | 40185 ft | 510 kts | 107° |
| 2026-05-06 12:32 | 45.23012 | 11.57142 | 40392 ft | 510 kts | 107° |
| 2026-05-06 12:32 | 45.22257 | 11.62057 | 40577 ft | 510 kts | 107° |
| 2026-05-06 12:32 | 45.21499 | 11.66976 | 40746 ft | 510 kts | 107° |
| 2026-05-06 12:33 | 45.20740 | 11.71885 | 40888 ft | 511 kts | 106° |
| 2026-05-06 12:33 | 45.19975 | 11.76819 | 40911 ft | 512 kts | 107° |
| 2026-05-06 12:33 | 45.18441 | 11.86671 | 40913 ft | 511 kts | 107° |
| 2026-05-06 12:34 | 45.16901 | 11.96503 | 40909 ft | 511 kts | 107° |
| 2026-05-06 12:34 | 45.15351 | 12.06334 | 40911 ft | 511 kts | 107° |
| 2026-05-06 12:35 | 45.13793 | 12.16158 | 40914 ft | 511 kts | 107° |
| 2026-05-06 12:35 | 45.12238 | 12.25911 | 40916 ft | 511 kts | 107° |
| 2026-05-06 12:36 | 45.10653 | 12.35781 | 40914 ft | 511 kts | 107° |
| 2026-05-06 12:36 | 45.09079 | 12.45529 | 40912 ft | 510 kts | 107° |
| 2026-05-06 12:37 | 45.07492 | 12.55307 | 40914 ft | 510 kts | 107° |
| 2026-05-06 12:37 | 45.05897 | 12.65076 | 40910 ft | 509 kts | 107° |
| 2026-05-06 12:38 | 45.04293 | 12.74841 | 40903 ft | 509 kts | 107° |
| 2026-05-06 12:38 | 45.02685 | 12.84578 | 40910 ft | 507 kts | 107° |
| 2026-05-06 12:39 | 45.01074 | 12.94279 | 40905 ft | 507 kts | 107° |
| 2026-05-06 12:39 | 44.99453 | 13.03977 | 40906 ft | 507 kts | 107° |
| 2026-05-06 12:40 | 44.97837 | 13.13664 | 40898 ft | 507 kts | 107° |
| 2026-05-06 12:40 | 44.96283 | 13.23390 | 40912 ft | 508 kts | 106° |
| 2026-05-06 12:41 | 44.94740 | 13.33114 | 40919 ft | 508 kts | 107° |
| 2026-05-06 12:41 | 44.93176 | 13.42838 | 40931 ft | 507 kts | 107° |
| 2026-05-06 12:42 | 44.91598 | 13.52547 | 40942 ft | 507 kts | 107° |
| 2026-05-06 12:42 | 44.90010 | 13.62246 | 40955 ft | 507 kts | 107° |
| 2026-05-06 12:43 | 44.88415 | 13.71940 | 40962 ft | 507 kts | 107° |
| 2026-05-06 12:43 | 44.86813 | 13.81622 | 40964 ft | 507 kts | 107° |
| 2026-05-06 12:44 | 44.85201 | 13.91305 | 40967 ft | 508 kts | 107° |
| 2026-05-06 12:44 | 44.83579 | 14.00996 | 40966 ft | 508 kts | 107° |
| 2026-05-06 12:45 | 44.81959 | 14.10621 | 40960 ft | 508 kts | 107° |
| 2026-05-06 12:46 | 44.79501 | 14.25126 | 40966 ft | 508 kts | 107° |
| 2026-05-06 12:46 | 44.77851 | 14.34799 | 40963 ft | 508 kts | 107° |
| 2026-05-06 12:47 | 44.76193 | 14.44464 | 40968 ft | 508 kts | 107° |
| 2026-05-06 12:47 | 44.74524 | 14.54137 | 40968 ft | 508 kts | 107° |
| 2026-05-06 12:48 | 44.72849 | 14.63790 | 40970 ft | 508 kts | 107° |
| 2026-05-06 12:48 | 44.71164 | 14.73451 | 40967 ft | 508 kts | 107° |
| 2026-05-06 12:49 | 44.69471 | 14.83102 | 40969 ft | 508 kts | 107° |
| 2026-05-06 12:49 | 44.67771 | 14.92747 | 40984 ft | 508 kts | 108° |
| 2026-05-06 12:50 | 44.66061 | 15.02393 | 40965 ft | 508 kts | 108° |
| 2026-05-06 12:50 | 44.64343 | 15.12034 | 40983 ft | 508 kts | 108° |
| 2026-05-06 12:51 | 44.62619 | 15.21661 | 40986 ft | 508 kts | 108° |
| 2026-05-06 12:51 | 44.60885 | 15.31290 | 40974 ft | 508 kts | 108° |
| 2026-05-06 12:52 | 44.59156 | 15.40838 | 40973 ft | 508 kts | 108° |
| 2026-05-06 12:52 | 44.57409 | 15.50443 | 40973 ft | 507 kts | 108° |
| 2026-05-06 12:53 | 44.55655 | 15.60028 | 40965 ft | 507 kts | 108° |
| 2026-05-06 12:53 | 44.53893 | 15.69610 | 40972 ft | 507 kts | 108° |
| 2026-05-06 12:54 | 44.52126 | 15.79176 | 40969 ft | 507 kts | 108° |
| 2026-05-06 12:54 | 44.50344 | 15.88764 | 40969 ft | 512 kts | 108° |
| 2026-05-06 12:55 | 44.48530 | 15.98464 | 40957 ft | 518 kts | 108° |
| 2026-05-06 12:55 | 44.46695 | 16.08244 | 40968 ft | 520 kts | 108° |
| 2026-05-06 12:56 | 44.44849 | 16.18034 | 40962 ft | 520 kts | 108° |
| 2026-05-06 12:56 | 44.42998 | 16.27804 | 40959 ft | 519 kts | 108° |
| 2026-05-06 12:57 | 44.41139 | 16.37568 | 40961 ft | 519 kts | 108° |
| 2026-05-06 12:57 | 44.39271 | 16.47318 | 40961 ft | 518 kts | 108° |
| 2026-05-06 12:58 | 44.37396 | 16.57046 | 40954 ft | 518 kts | 108° |
| 2026-05-06 12:58 | 44.35526 | 16.66709 | 40951 ft | 518 kts | 108° |
| 2026-05-06 12:59 | 44.33636 | 16.76426 | 40962 ft | 517 kts | 108° |
| 2026-05-06 12:59 | 44.31741 | 16.86120 | 40958 ft | 517 kts | 108° |
| 2026-05-06 13:00 | 44.29838 | 16.95808 | 40956 ft | 517 kts | 108° |
| 2026-05-06 13:00 | 44.27925 | 17.05498 | 40957 ft | 519 kts | 109° |
| 2026-05-06 13:01 | 44.25992 | 17.15229 | 40956 ft | 522 kts | 108° |
| 2026-05-06 13:01 | 44.24045 | 17.25000 | 40953 ft | 522 kts | 109° |
| 2026-05-06 13:02 | 44.22096 | 17.34735 | 40954 ft | 521 kts | 109° |
| 2026-05-06 13:02 | 44.20148 | 17.44405 | 40958 ft | 520 kts | 108° |
| 2026-05-06 13:03 | 44.18188 | 17.54098 | 40956 ft | 519 kts | 108° |
| 2026-05-06 13:03 | 44.16227 | 17.63742 | 40956 ft | 518 kts | 108° |
| 2026-05-06 13:04 | 44.14252 | 17.73403 | 40958 ft | 518 kts | 108° |
| 2026-05-06 13:04 | 44.12594 | 17.81487 | 40959 ft | 518 kts | 108° |
| 2026-05-06 13:05 | 44.10606 | 17.91139 | 40963 ft | 519 kts | 108° |
| 2026-05-06 13:05 | 44.08608 | 18.00785 | 40961 ft | 519 kts | 108° |
| 2026-05-06 13:06 | 44.06603 | 18.10425 | 40961 ft | 519 kts | 108° |
| 2026-05-06 13:06 | 44.04602 | 18.20002 | 40964 ft | 520 kts | 108° |
| 2026-05-06 13:07 | 44.02562 | 18.29715 | 40969 ft | 520 kts | 108° |
| 2026-05-06 13:07 | 44.00543 | 18.39287 | 40965 ft | 520 kts | 108° |
| 2026-05-06 13:08 | 43.98503 | 18.48914 | 40964 ft | 520 kts | 108° |
| 2026-05-06 13:08 | 43.96450 | 18.58552 | 40968 ft | 520 kts | 108° |
| 2026-05-06 13:09 | 43.94395 | 18.68160 | 40969 ft | 520 kts | 108° |
| 2026-05-06 13:09 | 43.92326 | 18.77782 | 40965 ft | 520 kts | 108° |
| 2026-05-06 13:10 | 43.90246 | 18.87416 | 40966 ft | 521 kts | 108° |
| 2026-05-06 13:10 | 43.88159 | 18.97037 | 40967 ft | 521 kts | 108° |
| 2026-05-06 13:11 | 43.86062 | 19.06660 | 40959 ft | 521 kts | 108° |
| 2026-05-06 13:11 | 43.83962 | 19.16255 | 40955 ft | 521 kts | 108° |
| 2026-05-06 13:12 | 43.81849 | 19.25861 | 40952 ft | 521 kts | 108° |
| 2026-05-06 13:12 | 43.79732 | 19.35448 | 40951 ft | 521 kts | 108° |
| 2026-05-06 13:13 | 43.77601 | 19.45050 | 40949 ft | 521 kts | 108° |
| 2026-05-06 13:13 | 43.75465 | 19.54635 | 40955 ft | 521 kts | 108° |
| 2026-05-06 13:14 | 43.73334 | 19.64158 | 40957 ft | 522 kts | 108° |
| 2026-05-06 13:14 | 43.71180 | 19.73739 | 40957 ft | 521 kts | 108° |
| 2026-05-06 13:15 | 43.69020 | 19.83304 | 40956 ft | 521 kts | 108° |
| 2026-05-06 13:15 | 43.66853 | 19.92862 | 40955 ft | 521 kts | 108° |
| 2026-05-06 13:16 | 43.64673 | 20.02426 | 40955 ft | 521 kts | 108° |
| 2026-05-06 13:16 | 43.62487 | 20.11980 | 40958 ft | 521 kts | 108° |
| 2026-05-06 13:17 | 43.60296 | 20.21514 | 40955 ft | 521 kts | 108° |
| 2026-05-06 13:17 | 43.58094 | 20.31052 | 40959 ft | 522 kts | 109° |
| 2026-05-06 13:18 | 43.55897 | 20.40527 | 40960 ft | 522 kts | 109° |
| 2026-05-06 13:18 | 43.53677 | 20.50058 | 40967 ft | 522 kts | 108° |
| 2026-05-06 13:19 | 43.51450 | 20.59586 | 40966 ft | 522 kts | 109° |
| 2026-05-06 13:19 | 43.49217 | 20.69099 | 40975 ft | 522 kts | 109° |
| 2026-05-06 13:20 | 43.46972 | 20.78615 | 40971 ft | 522 kts | 109° |
| 2026-05-06 13:20 | 43.44720 | 20.88122 | 40974 ft | 522 kts | 109° |
| 2026-05-06 13:21 | 43.42465 | 20.97601 | 40974 ft | 522 kts | 109° |
| 2026-05-06 13:21 | 43.40198 | 21.07094 | 40969 ft | 522 kts | 109° |
| 2026-05-06 13:22 | 43.37928 | 21.16559 | 40970 ft | 521 kts | 109° |
| 2026-05-06 13:22 | 43.35648 | 21.26023 | 40963 ft | 521 kts | 109° |
| 2026-05-06 13:23 | 43.33363 | 21.35473 | 40972 ft | 521 kts | 109° |
| 2026-05-06 13:23 | 43.31068 | 21.44922 | 40968 ft | 522 kts | 109° |
| 2026-05-06 13:24 | 43.28765 | 21.54363 | 40965 ft | 522 kts | 109° |
| 2026-05-06 13:24 | 43.26453 | 21.63806 | 40968 ft | 522 kts | 109° |
| 2026-05-06 13:25 | 43.24131 | 21.73246 | 40965 ft | 522 kts | 109° |
| 2026-05-06 13:25 | 43.21799 | 21.82691 | 40960 ft | 522 kts | 109° |
| 2026-05-06 13:26 | 43.19480 | 21.92049 | 40961 ft | 522 kts | 109° |
| 2026-05-06 13:26 | 43.17136 | 22.01464 | 40977 ft | 522 kts | 109° |
| 2026-05-06 13:27 | 43.14784 | 22.10873 | 40979 ft | 521 kts | 109° |
| 2026-05-06 13:27 | 43.12429 | 22.20257 | 40976 ft | 521 kts | 109° |
| 2026-05-06 13:28 | 43.10064 | 22.29645 | 40995 ft | 521 kts | 109° |
| 2026-05-06 13:28 | 43.07693 | 22.39016 | 40982 ft | 522 kts | 109° |
| 2026-05-06 13:29 | 43.05310 | 22.48400 | 40985 ft | 522 kts | 109° |
| 2026-05-06 13:29 | 43.02918 | 22.57783 | 40993 ft | 522 kts | 109° |
| 2026-05-06 13:30 | 43.00521 | 22.67142 | 41009 ft | 522 kts | 109° |
| 2026-05-06 13:30 | 42.98126 | 22.76462 | 41009 ft | 523 kts | 109° |
| 2026-05-06 13:31 | 42.95648 | 22.85807 | 40990 ft | 523 kts | 111° |
| 2026-05-06 13:31 | 42.92949 | 22.95023 | 40993 ft | 523 kts | 112° |
| 2026-05-06 13:32 | 42.90216 | 23.04228 | 40999 ft | 523 kts | 111° |
| 2026-05-06 13:32 | 42.87509 | 23.13438 | 41012 ft | 524 kts | 111° |
| 2026-05-06 13:33 | 42.84811 | 23.22658 | 41015 ft | 524 kts | 111° |
| 2026-05-06 13:33 | 42.82109 | 23.31878 | 41020 ft | 524 kts | 111° |
| 2026-05-06 13:34 | 42.79394 | 23.41100 | 41022 ft | 524 kts | 111° |
| 2026-05-06 13:34 | 42.76673 | 23.50308 | 41019 ft | 524 kts | 111° |
| 2026-05-06 13:35 | 42.73965 | 23.59439 | 41012 ft | 524 kts | 111° |
| 2026-05-06 13:35 | 42.71232 | 23.68622 | 41012 ft | 524 kts | 111° |
| 2026-05-06 13:36 | 42.68486 | 23.77814 | 41020 ft | 524 kts | 111° |
| 2026-05-06 13:36 | 42.65734 | 23.86993 | 41013 ft | 524 kts | 111° |
| 2026-05-06 13:37 | 42.62975 | 23.96163 | 41019 ft | 524 kts | 111° |
| 2026-05-06 13:37 | 42.60208 | 24.05331 | 41028 ft | 524 kts | 111° |
| 2026-05-06 13:38 | 42.57504 | 24.14505 | 41019 ft | 523 kts | 109° |
| 2026-05-06 13:38 | 42.54965 | 24.23762 | 41017 ft | 523 kts | 109° |
| 2026-05-06 13:39 | 42.52429 | 24.33020 | 41014 ft | 524 kts | 109° |
| 2026-05-06 13:39 | 42.49874 | 24.42205 | 41012 ft | 524 kts | 109° |
| 2026-05-06 13:40 | 42.47282 | 24.51431 | 41013 ft | 524 kts | 110° |
| 2026-05-06 13:40 | 42.44676 | 24.60661 | 41008 ft | 525 kts | 109° |
| 2026-05-06 13:41 | 42.42060 | 24.69895 | 41004 ft | 525 kts | 109° |
| 2026-05-06 13:41 | 42.39440 | 24.79115 | 40996 ft | 525 kts | 109° |
| 2026-05-06 13:42 | 42.36810 | 24.88338 | 41002 ft | 525 kts | 110° |
| 2026-05-06 13:42 | 42.34171 | 24.97557 | 40983 ft | 524 kts | 110° |
| 2026-05-06 13:43 | 42.31559 | 25.06643 | 40991 ft | 514 kts | 110° |
| 2026-05-06 13:43 | 42.28974 | 25.15610 | 40981 ft | 512 kts | 109° |
| 2026-05-06 13:44 | 42.26382 | 25.24571 | 40982 ft | 512 kts | 109° |
| 2026-05-06 13:44 | 42.23781 | 25.33530 | 40991 ft | 513 kts | 109° |
| 2026-05-06 13:45 | 42.21188 | 25.42431 | 40994 ft | 513 kts | 110° |
| 2026-05-06 13:45 | 42.18501 | 25.51334 | 40586 ft | 514 kts | 114° |
| 2026-05-06 13:45 | 42.16789 | 25.55568 | 40335 ft | 515 kts | 118° |
| 2026-05-06 13:46 | 42.14979 | 25.59737 | 40119 ft | 516 kts | 119° |
| 2026-05-06 13:46 | 42.13153 | 25.63894 | 39874 ft | 516 kts | 119° |
| 2026-05-06 13:46 | 42.11325 | 25.68033 | 39330 ft | 513 kts | 119° |
| 2026-05-06 13:46 | 42.09494 | 25.72168 | 38729 ft | 514 kts | 118° |
| 2026-05-06 13:47 | 42.07658 | 25.76308 | 37943 ft | 515 kts | 118° |
| 2026-05-06 13:47 | 42.06439 | 25.79051 | 37474 ft | 515 kts | 118° |
| 2026-05-06 13:47 | 42.04602 | 25.83182 | 36769 ft | 514 kts | 118° |
| 2026-05-06 13:47 | 42.02141 | 25.88703 | 35844 ft | 515 kts | 118° |
| 2026-05-06 13:48 | 42.00921 | 25.91438 | 35334 ft | 516 kts | 118° |
| 2026-05-06 13:48 | 41.99070 | 25.95581 | 34570 ft | 518 kts | 118° |
| 2026-05-06 13:48 | 41.97209 | 25.99742 | 33683 ft | 522 kts | 118° |
| 2026-05-06 13:48 | 41.95333 | 26.03933 | 32748 ft | 524 kts | 118° |
| 2026-05-06 13:49 | 41.93448 | 26.08133 | 31813 ft | 526 kts | 118° |
| 2026-05-06 13:49 | 41.91551 | 26.12357 | 30880 ft | 528 kts | 118° |
| 2026-05-06 13:49 | 41.89661 | 26.16554 | 30416 ft | 520 kts | 118° |
| 2026-05-06 13:49 | 41.87814 | 26.20645 | 30293 ft | 504 kts | 118° |
| 2026-05-06 13:50 | 41.86021 | 26.24613 | 30161 ft | 490 kts | 118° |
| 2026-05-06 13:50 | 41.84280 | 26.28464 | 30056 ft | 476 kts | 118° |
| 2026-05-06 13:50 | 41.82578 | 26.32227 | 29540 ft | 470 kts | 118° |
| 2026-05-06 13:50 | 41.80968 | 26.36014 | 28974 ft | 464 kts | 112° |
| 2026-05-06 13:51 | 41.79754 | 26.39955 | 28618 ft | 455 kts | 107° |
| 2026-05-06 13:51 | 41.78660 | 26.43940 | 28277 ft | 455 kts | 106° |
| 2026-05-06 13:51 | 41.77594 | 26.47863 | 27936 ft | 453 kts | 106° |
| 2026-05-06 13:51 | 41.76514 | 26.51825 | 27566 ft | 451 kts | 106° |
| 2026-05-06 13:52 | 41.75408 | 26.55752 | 27215 ft | 450 kts | 109° |
| 2026-05-06 13:52 | 41.73937 | 26.59454 | 26874 ft | 450 kts | 119° |
| 2026-05-06 13:52 | 41.72232 | 26.62963 | 26502 ft | 448 kts | 121° |
| 2026-05-06 13:52 | 41.70507 | 26.66420 | 26160 ft | 446 kts | 121° |
| 2026-05-06 13:53 | 41.68794 | 26.69867 | 25855 ft | 442 kts | 120° |
| 2026-05-06 13:53 | 41.67217 | 26.73443 | 25769 ft | 446 kts | 116° |
| 2026-05-06 13:53 | 41.65723 | 26.77005 | 25587 ft | 433 kts | 116° |
| 2026-05-06 13:53 | 41.64280 | 26.80484 | 25381 ft | 422 kts | 116° |
| 2026-05-06 13:54 | 41.62873 | 26.83887 | 25148 ft | 409 kts | 116° |
| 2026-05-06 13:54 | 41.61525 | 26.87150 | 24817 ft | 396 kts | 115° |
| 2026-05-06 13:54 | 41.60204 | 26.90356 | 24449 ft | 392 kts | 115° |
| 2026-05-06 13:54 | 41.58897 | 26.93527 | 24014 ft | 389 kts | 115° |
| 2026-05-06 13:55 | 41.57595 | 26.96685 | 23547 ft | 386 kts | 115° |
| 2026-05-06 13:55 | 41.56319 | 26.99777 | 23013 ft | 383 kts | 115° |
| 2026-05-06 13:55 | 41.55032 | 27.02890 | 22480 ft | 381 kts | 115° |
| 2026-05-06 13:55 | 41.53750 | 27.05990 | 21956 ft | 382 kts | 115° |
| 2026-05-06 13:56 | 41.52465 | 27.09092 | 21444 ft | 381 kts | 116° |
| 2026-05-06 13:56 | 41.51198 | 27.12145 | 20933 ft | 370 kts | 116° |
| 2026-05-06 13:56 | 41.49964 | 27.15113 | 20418 ft | 363 kts | 116° |
| 2026-05-06 13:56 | 41.48746 | 27.18045 | 19939 ft | 359 kts | 116° |
| 2026-05-06 13:57 | 41.47539 | 27.20946 | 19466 ft | 355 kts | 116° |
| 2026-05-06 13:57 | 41.46339 | 27.23829 | 19099 ft | 355 kts | 116° |
| 2026-05-06 13:57 | 41.45149 | 27.26684 | 18747 ft | 351 kts | 116° |
| 2026-05-06 13:57 | 41.43968 | 27.29516 | 18403 ft | 347 kts | 116° |
| 2026-05-06 13:58 | 41.42802 | 27.32307 | 18018 ft | 344 kts | 116° |
| 2026-05-06 13:58 | 41.41645 | 27.35075 | 17705 ft | 341 kts | 116° |
| 2026-05-06 13:58 | 41.40505 | 27.37802 | 17469 ft | 340 kts | 116° |
| 2026-05-06 13:58 | 41.39358 | 27.40541 | 17200 ft | 338 kts | 116° |
| 2026-05-06 13:59 | 41.38213 | 27.43272 | 16928 ft | 337 kts | 116° |
| 2026-05-06 13:59 | 41.37073 | 27.45990 | 16671 ft | 335 kts | 116° |
| 2026-05-06 13:59 | 41.35937 | 27.48693 | 16432 ft | 334 kts | 116° |
| 2026-05-06 13:59 | 41.34805 | 27.51387 | 16173 ft | 333 kts | 116° |
| 2026-05-06 14:00 | 41.33680 | 27.54063 | 15912 ft | 332 kts | 116° |
| 2026-05-06 14:00 | 41.32554 | 27.56735 | 15674 ft | 330 kts | 116° |
| 2026-05-06 14:00 | 41.31430 | 27.59402 | 15430 ft | 329 kts | 116° |
| 2026-05-06 14:00 | 41.30308 | 27.62063 | 15243 ft | 332 kts | 116° |
| 2026-05-06 14:01 | 41.29184 | 27.64726 | 15043 ft | 328 kts | 116° |
| 2026-05-06 14:01 | 41.28069 | 27.67362 | 14791 ft | 325 kts | 116° |
| 2026-05-06 14:01 | 41.26964 | 27.69974 | 14543 ft | 324 kts | 116° |
| 2026-05-06 14:01 | 41.25860 | 27.72585 | 14175 ft | 323 kts | 116° |
| 2026-05-06 14:02 | 41.24763 | 27.75172 | 13777 ft | 320 kts | 116° |
| 2026-05-06 14:02 | 41.23673 | 27.77743 | 13327 ft | 318 kts | 116° |
| 2026-05-06 14:02 | 41.22589 | 27.80296 | 12880 ft | 316 kts | 116° |
| 2026-05-06 14:02 | 41.21511 | 27.82833 | 12421 ft | 314 kts | 116° |
| 2026-05-06 14:03 | 41.20439 | 27.85357 | 11992 ft | 313 kts | 116° |
| 2026-05-06 14:03 | 41.19373 | 27.87862 | 11573 ft | 311 kts | 116° |
| 2026-05-06 14:03 | 41.18310 | 27.90357 | 11156 ft | 309 kts | 116° |
| 2026-05-06 14:03 | 41.17266 | 27.92807 | 10707 ft | 308 kts | 116° |
| 2026-05-06 14:04 | 41.16197 | 27.95313 | 10299 ft | 307 kts | 116° |
| 2026-05-06 14:04 | 41.15149 | 27.97768 | 9908 ft | 305 kts | 116° |
| 2026-05-06 14:04 | 41.14108 | 28.00207 | 9461 ft | 303 kts | 116° |
| 2026-05-06 14:04 | 41.13072 | 28.02631 | 9038 ft | 300 kts | 116° |
| 2026-05-06 14:05 | 41.12046 | 28.05028 | 8605 ft | 298 kts | 116° |
| 2026-05-06 14:05 | 41.11038 | 28.07382 | 8186 ft | 296 kts | 116° |
| 2026-05-06 14:05 | 41.10020 | 28.09760 | 7696 ft | 296 kts | 117° |
| 2026-05-06 14:05 | 41.09003 | 28.12129 | 7279 ft | 294 kts | 117° |
| 2026-05-06 14:06 | 41.07993 | 28.14484 | 6864 ft | 293 kts | 117° |
| 2026-05-06 14:06 | 41.06986 | 28.16826 | 6456 ft | 291 kts | 117° |
| 2026-05-06 14:06 | 41.05990 | 28.19145 | 6044 ft | 288 kts | 117° |
| 2026-05-06 14:06 | 41.05005 | 28.21434 | 5667 ft | 284 kts | 118° |
| 2026-05-06 14:07 | 41.04031 | 28.23696 | 5270 ft | 281 kts | 118° |
| 2026-05-06 14:07 | 41.03065 | 28.25937 | 5025 ft | 279 kts | 118° |
| 2026-05-06 14:07 | 41.02101 | 28.28172 | 4982 ft | 280 kts | 118° |
| 2026-05-06 14:07 | 41.01137 | 28.30406 | 4983 ft | 279 kts | 118° |
| 2026-05-06 14:08 | 41.00174 | 28.32633 | 4986 ft | 279 kts | 118° |
| 2026-05-06 14:08 | 40.99213 | 28.34859 | 4984 ft | 279 kts | 118° |
| 2026-05-06 14:08 | 40.98261 | 28.37060 | 4989 ft | 279 kts | 118° |
| 2026-05-06 14:08 | 40.97283 | 28.39321 | 4987 ft | 280 kts | 118° |
| 2026-05-06 14:09 | 40.96331 | 28.41532 | 4988 ft | 281 kts | 118° |
| 2026-05-06 14:09 | 40.95364 | 28.43777 | 4984 ft | 281 kts | 118° |
| 2026-05-06 14:09 | 40.94395 | 28.46026 | 4985 ft | 281 kts | 118° |
| 2026-05-06 14:09 | 40.93427 | 28.48271 | 4988 ft | 281 kts | 118° |
| 2026-05-06 14:10 | 40.92456 | 28.50520 | 4989 ft | 280 kts | 118° |
| 2026-05-06 14:10 | 40.91491 | 28.52753 | 4988 ft | 279 kts | 118° |
| 2026-05-06 14:10 | 40.90530 | 28.54976 | 4986 ft | 279 kts | 118° |
| 2026-05-06 14:10 | 40.89634 | 28.57244 | 4983 ft | 278 kts | 110° |
| 2026-05-06 14:11 | 40.89414 | 28.59736 | 4993 ft | 273 kts | 78° |
| 2026-05-06 14:11 | 40.89922 | 28.62133 | 4988 ft | 270 kts | 68° |
| 2026-05-06 14:11 | 40.90553 | 28.64480 | 4991 ft | 271 kts | 67° |
| 2026-05-06 14:11 | 40.91185 | 28.66825 | 4995 ft | 271 kts | 67° |
| 2026-05-06 14:12 | 40.92073 | 28.68990 | 4991 ft | 266 kts | 45° |
| 2026-05-06 14:12 | 40.93530 | 28.70423 | 4998 ft | 260 kts | 27° |
| 2026-05-06 14:12 | 40.95121 | 28.71578 | 4992 ft | 261 kts | 25° |
| 2026-05-06 14:12 | 40.96734 | 28.72683 | 4988 ft | 260 kts | 20° |
| 2026-05-06 14:13 | 40.98416 | 28.73290 | 4990 ft | 241 kts | 6° |
| 2026-05-06 14:13 | 41.00026 | 28.73423 | 4982 ft | 223 kts | 358° |
| 2026-05-06 14:13 | 41.01514 | 28.73375 | 4988 ft | 205 kts | 356° |
| 2026-05-06 14:13 | 41.02895 | 28.73327 | 4975 ft | 197 kts | 356° |
| 2026-05-06 14:14 | 41.04342 | 28.73273 | 4826 ft | 208 kts | 357° |
| 2026-05-06 14:14 | 41.05765 | 28.73247 | 4493 ft | 200 kts | 358° |
| 2026-05-06 14:14 | 41.07123 | 28.73217 | 4140 ft | 191 kts | 357° |
| 2026-05-06 14:14 | 41.08441 | 28.73185 | 3838 ft | 188 kts | 358° |
| 2026-05-06 14:15 | 41.09738 | 28.73158 | 3555 ft | 182 kts | 358° |
| 2026-05-06 14:15 | 41.10962 | 28.73129 | 3320 ft | 171 kts | 358° |
| 2026-05-06 14:15 | 41.12108 | 28.73101 | 3106 ft | 157 kts | 358° |
| 2026-05-06 14:15 | 41.13160 | 28.73076 | 2913 ft | 146 kts | 359° |
| 2026-05-06 14:16 | 41.14131 | 28.73055 | 2730 ft | 135 kts | 358° |
| 2026-05-06 14:16 | 41.15055 | 28.73033 | 2553 ft | 132 kts | 359° |
| 2026-05-06 14:16 | 41.15972 | 28.73012 | 2386 ft | 131 kts | 359° |
| 2026-05-06 14:16 | 41.16887 | 28.72991 | 2205 ft | 132 kts | 359° |
| 2026-05-06 14:17 | 41.17789 | 28.72970 | 2038 ft | 132 kts | 359° |
| 2026-05-06 14:17 | 41.18690 | 28.72950 | 1864 ft | 133 kts | 359° |
| 2026-05-06 14:17 | 41.19624 | 28.72929 | 1682 ft | 133 kts | 359° |
| 2026-05-06 14:17 | 41.20546 | 28.72907 | 1494 ft | 132 kts | 359° |
| 2026-05-06 14:18 | 41.21460 | 28.72886 | 1319 ft | 132 kts | 359° |
| 2026-05-06 14:18 | 41.22371 | 28.72862 | 1120 ft | 131 kts | 0° |
| 2026-05-06 14:18 | 41.23273 | 28.72861 | 933 ft | 127 kts | 2° |
| 2026-05-06 14:18 | 41.24165 | 28.72826 | 756 ft | 129 kts | 1° |
| 2026-05-06 14:19 | 41.25056 | 28.72801 | 598 ft | 126 kts | 3° |
| 2026-05-06 14:19 | 41.25930 | 28.72779 | 454 ft | 125 kts | 4° |
| 2026-05-06 14:19 | 41.26805 | 28.72761 | 356 ft | 123 kts | 5° |
| 2026-05-06 14:19 | 41.27550 | 28.72749 | 335 ft | 77 kts | 359° |
| 2026-05-06 14:20 | 41.27863 | 28.72744 | 335 ft | 35 kts | 4° |
| 2026-05-06 14:20 | 41.28009 | 28.72796 | 338 ft | 16 kts | 23° |
| 2026-05-06 14:20 | 41.28105 | 28.72864 | 339 ft | 14 kts | 35° |
| 2026-05-06 14:20 | 41.28109 | 28.72935 | 335 ft | 6 kts | 122° |
| 2026-05-06 14:21 | 41.28068 | 28.72956 | 335 ft | 11 kts | 173° |
| 2026-05-06 14:21 | 41.27934 | 28.72964 | 337 ft | 27 kts | 178° |
| 2026-05-06 14:21 | 41.27766 | 28.72967 | 336 ft | 25 kts | 179° |
| 2026-05-06 14:21 | 41.27606 | 28.72972 | 337 ft | 21 kts | 180° |
| 2026-05-06 14:22 | 41.27453 | 28.72974 | 336 ft | 24 kts | 179° |
| 2026-05-06 14:22 | 41.27283 | 28.72979 | 339 ft | 23 kts | 179° |
| 2026-05-06 14:22 | 41.27133 | 28.72982 | 336 ft | 21 kts | 179° |
| 2026-05-06 14:22 | 41.26996 | 28.72992 | 336 ft | 16 kts | 161° |
| 2026-05-06 14:23 | 41.26956 | 28.73066 | 335 ft | 9 kts | 96° |
| 2026-05-06 14:23 | 41.26954 | 28.73181 | 340 ft | 15 kts | 90° |
| 2026-05-06 14:23 | 41.26956 | 28.73327 | 337 ft | 17 kts | 89° |
| 2026-05-06 14:23 | 41.26959 | 28.73495 | 335 ft | 20 kts | 88° |
| 2026-05-06 14:24 | 41.26960 | 28.73687 | 337 ft | 22 kts | 90° |
| 2026-05-06 14:24 | 41.26964 | 28.73895 | 340 ft | 23 kts | 89° |
| 2026-05-06 14:24 | 41.26967 | 28.74102 | 340 ft | 23 kts | 89° |
| 2026-05-06 14:24 | 41.26970 | 28.74323 | 339 ft | 25 kts | 90° |
| 2026-05-06 14:25 | 41.26972 | 28.74561 | 336 ft | 27 kts | 89° |
| 2026-05-06 14:25 | 41.26975 | 28.74774 | 337 ft | 22 kts | 89° |
| 2026-05-06 14:25 | 41.26978 | 28.74986 | 340 ft | 21 kts | 88° |
| 2026-05-06 14:25 | 41.26975 | 28.75109 | 337 ft | 1 kts | 120° |
| 2026-05-06 14:26 | 41.26971 | 28.75115 | 335 ft | 2 kts | 130° |
| 2026-05-06 14:26 | 41.26921 | 28.75147 | 335 ft | 14 kts | 175° |
| 2026-05-06 14:26 | 41.26817 | 28.75151 | 339 ft | 17 kts | 179° |
| 2026-05-06 14:26 | 41.26689 | 28.75154 | 336 ft | 20 kts | 180° |
| 2026-05-06 14:27 | 41.26553 | 28.75112 | 335 ft | 21 kts | 195° |
| 2026-05-06 14:27 | 41.26452 | 28.75071 | 337 ft | 12 kts | 197° |
| 2026-05-06 14:27 | 41.26360 | 28.75033 | 337 ft | 16 kts | 196° |
| 2026-05-06 14:27 | 41.26321 | 28.75018 | 337 ft | 7 kts | 197° |
| 2026-05-06 14:28 | 41.26283 | 28.74964 | 335 ft | 10 kts | 259° |
| 2026-05-06 14:28 | 41.26297 | 28.74889 | 336 ft | 0 kts | 288° |
| 2026-05-06 14:28 | 41.26298 | 28.74886 | 336 ft | 0 kts | 288° |